Time;durP1;ratioP1;P1;durP2;ratioP2;P2;SDS_P1;SDS_P2;PMS_P1;PMS_P2;Temp;Humidity;BMP_temperature;BMP_pressure;BME280_temperature;BME280_humidity;BME280_pressure;Samples;Min_cycle;Max_cycle;Signal;HPM_P1;HPM_P2
2022/04/19 00:00:16;;;;;;;10.20;6.88;;;9.10;93.10;;;;;;4992829;28;20097;-84
2022/04/19 00:02:44;;;;;;;12.70;7.18;;;9.00;92.70;;;;;;4976075;28;20035;-84
2022/04/19 00:05:11;;;;;;;10.75;6.30;;;9.00;93.50;;;;;;4961206;28;20038;-84
2022/04/19 00:07:37;;;;;;;10.52;7.55;;;8.90;93.20;;;;;;4976528;28;20038;-84
2022/04/19 00:10:07;;;;;;;12.15;7.60;;;8.80;94.00;;;;;;4977057;28;20046;-84
2022/04/19 00:12:33;;;;;;;11.90;8.00;;;8.70;95.00;;;;;;4960696;28;20046;-84
2022/04/19 00:15:03;;;;;;;10.43;6.57;;;8.50;94.80;;;;;;4973218;28;20122;-84
2022/04/19 00:17:29;;;;;;;9.73;6.95;;;8.50;94.70;;;;;;4956458;28;20039;-84
2022/04/19 00:19:59;;;;;;;9.88;6.68;;;8.50;94.80;;;;;;4989486;28;20035;-84
2022/04/19 00:22:24;;;;;;;11.80;7.35;;;8.40;95.10;;;;;;4957954;28;20402;-84
2022/04/19 00:24:50;;;;;;;10.43;6.90;;;8.40;94.60;;;;;;4966262;28;20050;-84
2022/04/19 00:27:16;;;;;;;9.93;6.65;;;8.30;94.80;;;;;;4973018;28;20046;-84
2022/04/19 00:29:42;;;;;;;8.93;6.35;;;8.40;94.70;;;;;;4996402;28;20441;-84
2022/04/19 00:32:09;;;;;;;9.70;6.82;;;8.40;94.60;;;;;;4963776;28;20072;-84
2022/04/19 00:34:34;;;;;;;10.60;6.80;;;8.40;94.70;;;;;;4979820;28;20046;-84
2022/04/19 00:37:01;;;;;;;9.88;6.72;;;8.50;94.50;;;;;;4980843;28;20045;-84
2022/04/19 00:39:27;;;;;;;9.95;6.32;;;8.50;94.20;;;;;;4980622;28;20077;-84
2022/04/19 00:41:55;;;;;;;10.63;6.78;;;8.50;94.10;;;;;;4980365;28;20081;-84
2022/04/19 00:44:23;;;;;;;10.80;7.20;;;8.50;94.00;;;;;;4980602;28;20378;-84
2022/04/19 00:46:52;;;;;;;10.25;6.78;;;8.50;94.10;;;;;;4981282;28;20042;-84
2022/04/19 00:49:17;;;;;;;8.90;6.20;;;8.50;94.00;;;;;;4979396;28;20039;-84
2022/04/19 00:51:44;;;;;;;10.38;7.05;;;8.40;94.10;;;;;;4996550;28;20043;-84
2022/04/19 00:54:13;;;;;;;9.60;7.13;;;8.40;94.10;;;;;;4996089;28;20129;-84
2022/04/19 00:56:42;;;;;;;9.77;6.45;;;8.40;95.20;;;;;;4996604;28;20039;-84
2022/04/19 00:59:12;;;;;;;9.48;6.47;;;8.30;94.50;;;;;;4979768;28;20041;-84
2022/04/19 01:01:38;;;;;;;10.23;6.85;;;8.30;94.40;;;;;;4980628;28;20052;-84
2022/04/19 01:04:08;;;;;;;9.95;6.60;;;8.30;94.60;;;;;;4996294;28;20069;-84
2022/04/19 01:06:35;;;;;;;10.52;6.70;;;8.30;94.40;;;;;;4980780;28;20469;-84
2022/04/19 01:09:01;;;;;;;10.23;6.93;;;8.30;94.30;;;;;;4963912;28;20045;-84
2022/04/19 01:14:14;;;;;;;10.25;6.85;;;8.30;94.10;;;;;;5003282;28;20046;-84
2022/04/19 01:16:42;;;;;;;10.18;7.00;;;8.20;94.40;;;;;;5004022;28;20042;-84
2022/04/19 01:19:17;;;;;;;9.85;6.65;;;8.20;94.30;;;;;;4963599;28;20125;-84
2022/04/19 01:21:44;;;;;;;9.20;6.50;;;8.10;94.30;;;;;;4979993;28;20069;-84
2022/04/19 01:24:18;;;;;;;10.30;6.70;;;8.20;94.40;;;;;;4963548;28;20038;-84
2022/04/19 01:26:44;;;;;;;11.40;6.90;;;8.20;94.30;;;;;;4996567;28;20557;-84
2022/04/19 01:29:11;;;;;;;10.23;6.30;;;8.20;94.20;;;;;;4979029;28;20058;-84
2022/04/19 01:31:42;;;;;;;8.63;5.90;;;8.20;94.10;;;;;;4995839;28;20038;-84
2022/04/19 01:34:08;;;;;;;11.15;7.43;;;8.10;94.00;;;;;;4994163;28;20081;-84
2022/04/19 01:36:38;;;;;;;10.10;6.70;;;8.10;94.10;;;;;;4979091;28;20046;-84
2022/04/19 01:39:04;;;;;;;9.85;7.22;;;8.10;94.40;;;;;;4994691;28;20061;-84
2022/04/19 01:41:30;;;;;;;10.82;6.55;;;8.10;94.40;;;;;;4979031;28;20043;-84
2022/04/19 01:43:56;;;;;;;10.05;7.13;;;8.00;94.70;;;;;;4975676;28;20042;-84
2022/04/19 01:46:23;;;;;;;11.45;7.22;;;8.00;94.80;;;;;;4995616;28;20061;-84
2022/04/19 01:48:50;;;;;;;11.48;7.50;;;7.90;94.90;;;;;;4962389;28;20057;-84
2022/04/19 01:51:20;;;;;;;10.18;6.88;;;7.90;95.50;;;;;;4980206;28;20097;-84
2022/04/19 01:53:46;;;;;;;12.68;8.05;;;7.80;95.10;;;;;;4963552;28;20074;-84
2022/04/19 01:56:12;;;;;;;10.65;6.75;;;7.60;96.90;;;;;;4979198;28;20049;-84
2022/04/19 01:58:38;;;;;;;10.38;6.60;;;7.60;96.20;;;;;;4978895;28;20038;-84
2022/04/19 02:01:03;;;;;;;10.00;7.10;;;7.60;96.20;;;;;;4963748;28;20413;-84
2022/04/19 02:03:29;;;;;;;10.55;7.15;;;7.60;96.10;;;;;;4962140;28;20050;-84
2022/04/19 02:05:55;;;;;;;9.90;6.45;;;7.70;95.90;;;;;;4978880;28;20050;-84
2022/04/19 02:08:21;;;;;;;10.90;7.00;;;7.60;95.90;;;;;;4962316;28;20038;-84
2022/04/19 02:10:47;;;;;;;10.55;7.03;;;7.70;95.70;;;;;;4978348;28;20046;-84
2022/04/19 02:13:17;;;;;;;12.75;7.95;;;7.70;95.50;;;;;;4978364;28;20478;-84
2022/04/19 02:15:45;;;;;;;14.40;8.27;;;7.80;95.50;;;;;;4978932;28;20513;-84
2022/04/19 02:18:12;;;;;;;10.95;6.90;;;7.70;95.40;;;;;;4977759;28;20395;-84
2022/04/19 02:20:38;;;;;;;11.30;7.18;;;7.70;95.30;;;;;;4978943;28;20050;-84
2022/04/19 02:23:05;;;;;;;12.60;7.93;;;7.70;95.40;;;;;;4978293;28;20411;-84
2022/04/19 02:25:30;;;;;;;15.15;8.48;;;7.60;95.50;;;;;;4978949;28;20505;-84
2022/04/19 02:27:56;;;;;;;11.98;7.40;;;7.60;95.50;;;;;;4962172;28;20038;-84
2022/04/19 02:30:23;;;;;;;32.60;13.68;;;7.50;95.60;;;;;;4978843;28;20046;-84
2022/04/19 02:32:52;;;;;;;19.65;9.70;;;7.40;96.30;;;;;;4958303;28;20070;-84
2022/04/19 02:35:21;;;;;;;36.67;16.50;;;7.30;96.00;;;;;;4978239;28;20125;-84
2022/04/19 02:37:57;;;;;;;32.97;14.95;;;7.30;96.30;;;;;;4994176;28;20485;-84
2022/04/19 02:40:25;;;;;;;23.38;11.63;;;7.20;98.60;;;;;;4994450;28;20042;-84
2022/04/19 02:42:53;;;;;;;19.95;10.50;;;7.10;97.70;;;;;;4977785;28;20061;-84
2022/04/19 02:45:22;;;;;;;16.15;9.38;;;7.10;98.60;;;;;;4978382;28;20560;-84
2022/04/19 02:48:04;;;;;;;17.77;9.40;;;7.00;99.20;;;;;;4994135;28;20049;-84
2022/04/19 02:50:33;;;;;;;16.10;8.88;;;7.00;98.60;;;;;;4994133;28;20042;-84
2022/04/19 02:53:02;;;;;;;12.07;8.48;;;7.00;98.20;;;;;;4993744;28;20089;-84
2022/04/19 02:55:28;;;;;;;18.65;9.43;;;6.90;98.90;;;;;;4962291;28;20533;-84
2022/04/19 02:57:57;;;;;;;18.65;9.55;;;6.80;99.40;;;;;;4993701;28;20038;-84
2022/04/19 03:00:24;;;;;;;13.68;9.05;;;6.70;98.90;;;;;;4961860;28;20037;-84
2022/04/19 03:02:52;;;;;;;12.70;8.38;;;6.80;99.00;;;;;;4976651;28;20046;-84
2022/04/19 03:05:18;;;;;;;14.90;8.85;;;6.80;99.00;;;;;;4977524;28;20117;-84
2022/04/19 03:07:44;;;;;;;13.23;8.95;;;6.80;99.10;;;;;;4977921;28;20042;-84
2022/04/19 03:10:10;;;;;;;14.45;8.10;;;6.80;99.90;;;;;;4977818;28;20504;-84
2022/04/19 03:12:36;;;;;;;13.23;9.38;;;6.70;99.90;;;;;;4993128;28;20121;-84
2022/04/19 03:15:06;;;;;;;12.85;8.40;;;6.60;99.90;;;;;;4993507;28;20066;-84
2022/04/19 03:17:32;;;;;;;12.77;8.18;;;6.40;99.90;;;;;;4977077;28;20046;-83
2022/04/19 03:19:59;;;;;;;13.75;8.25;;;6.40;99.90;;;;;;4977449;28;20042;-83
2022/04/19 03:22:24;;;;;;;13.77;7.95;;;6.40;99.90;;;;;;4977348;28;20065;-84
2022/04/19 03:27:43;;;;;;;12.90;9.18;;;6.50;99.90;;;;;;4979567;28;20100;-84
2022/04/19 03:30:14;;;;;;;13.57;10.00;;;6.40;99.90;;;;;;4963784;28;20050;-84
2022/04/19 03:32:43;;;;;;;13.32;9.30;;;6.30;99.90;;;;;;4961808;28;20442;-84
2022/04/19 03:35:10;;;;;;;12.27;9.23;;;6.30;99.90;;;;;;4977661;28;20052;-84
2022/04/19 03:37:39;;;;;;;13.02;9.15;;;6.30;99.90;;;;;;4992750;28;20513;-84
2022/04/19 03:40:06;;;;;;;12.20;9.10;;;6.30;99.90;;;;;;5009807;28;20097;-84
2022/04/19 03:42:35;;;;;;;13.73;9.45;;;6.30;99.90;;;;;;4993469;28;20414;-84
2022/04/19 03:45:02;;;;;;;13.75;9.80;;;6.30;99.90;;;;;;4977018;28;20050;-84
2022/04/19 03:47:28;;;;;;;10.95;8.25;;;6.30;99.90;;;;;;4976060;28;20053;-84
2022/04/19 03:49:57;;;;;;;12.68;8.07;;;6.70;99.90;;;;;;4973907;28;20045;-84
2022/04/19 03:52:22;;;;;;;13.10;9.00;;;6.30;99.90;;;;;;4989915;28;20038;-84
2022/04/19 03:54:48;;;;;;;14.65;10.50;;;6.30;99.90;;;;;;4989882;28;20101;-84
2022/04/19 03:57:17;;;;;;;16.77;10.73;;;6.20;99.90;;;;;;4990155;28;20486;-84
2022/04/19 03:59:43;;;;;;;16.63;10.40;;;6.00;99.90;;;;;;4965067;28;20043;-84
2022/04/19 04:02:11;;;;;;;11.80;8.13;;;5.70;99.90;;;;;;4998531;28;20498;-84
2022/04/19 04:04:37;;;;;;;13.52;8.82;;;5.70;99.90;;;;;;4973141;28;20093;-84
2022/04/19 04:07:10;;;;;;;13.60;9.48;;;5.80;99.90;;;;;;4976161;28;20523;-84
2022/04/19 04:09:36;;;;;;;11.93;8.57;;;5.80;99.90;;;;;;4992275;28;20050;-84
2022/04/19 04:12:27;;;;;;;14.50;10.02;;;5.80;99.90;;;;;;4976090;28;20060;-84
2022/04/19 04:14:57;;;;;;;;;;;5.80;99.90;;;;;;4991618;28;20093;-84
2022/04/19 04:17:26;;;;;;;14.70;8.25;;;5.80;99.90;;;;;;4992104;28;19987;-84
2022/04/19 04:19:52;;;;;;;13.10;8.65;;;5.80;99.90;;;;;;4976875;28;20042;-84
2022/04/19 04:22:28;;;;;;;14.20;9.60;;;5.80;99.90;;;;;;4993445;28;20061;-84
2022/04/19 04:24:54;;;;;;;13.68;9.77;;;5.80;99.90;;;;;;4977106;28;20046;-84
2022/04/19 04:27:19;;;;;;;15.88;9.98;;;5.70;99.90;;;;;;4976746;28;20192;-84
2022/04/19 04:29:45;;;;;;;12.93;8.60;;;5.60;99.90;;;;;;4992991;28;20087;-84
2022/04/19 04:32:11;;;;;;;13.95;9.88;;;5.60;99.90;;;;;;4972868;28;20043;-84
2022/04/19 04:34:40;;;;;;;14.75;10.10;;;5.60;99.90;;;;;;4974507;28;20061;-84
2022/04/19 04:37:06;;;;;;;13.63;9.38;;;5.50;99.90;;;;;;4965511;28;20487;-84
2022/04/19 04:39:37;;;;;;;13.95;10.13;;;5.60;99.90;;;;;;4977033;28;20042;-84
2022/04/19 04:42:04;;;;;;;15.10;9.85;;;5.50;99.90;;;;;;4992099;28;20126;-84
2022/04/19 04:44:33;;;;;;;13.07;9.68;;;5.50;99.90;;;;;;4976871;28;20042;-84
2022/04/19 04:49:43;;;;;;;14.38;9.32;;;5.70;99.90;;;;;;4965318;28;20057;-84
2022/04/19 04:52:11;;;;;;;12.48;9.00;;;5.60;99.90;;;;;;5008890;28;20125;-84
2022/04/19 04:54:43;;;;;;;14.52;9.80;;;5.70;99.90;;;;;;4992244;28;20038;-84
2022/04/19 04:57:09;;;;;;;14.70;10.27;;;5.70;99.90;;;;;;4976398;28;20046;-84
2022/04/19 04:59:44;;;;;;;13.48;9.65;;;5.60;99.90;;;;;;4992246;28;20120;-84
2022/04/19 05:02:16;;;;;;;12.52;8.63;;;5.60;99.90;;;;;;5007811;28;20100;-84
2022/04/19 05:04:43;;;;;;;13.27;8.60;;;5.60;99.90;;;;;;4974839;28;20042;-84
2022/04/19 05:07:09;;;;;;;11.88;8.40;;;5.60;99.90;;;;;;4975745;28;20042;-84
2022/04/19 05:09:35;;;;;;;14.25;9.60;;;5.70;99.90;;;;;;4991199;28;20141;-84
2022/04/19 05:12:01;;;;;;;14.82;10.05;;;5.70;99.90;;;;;;4956393;28;20070;-84
2022/04/19 05:14:46;;;;;;;14.38;10.05;;;5.70;99.90;;;;;;5008321;28;20065;-84
2022/04/19 05:17:14;;;;;;;13.30;9.48;;;5.70;99.90;;;;;;4995275;28;20055;-84
2022/04/19 05:19:41;;;;;;;15.32;9.63;;;5.80;99.90;;;;;;4962973;28;20045;-84
2022/04/19 05:22:07;;;;;;;14.00;9.30;;;6.00;99.90;;;;;;4980002;28;20481;-84
2022/04/19 05:24:37;;;;;;;14.88;9.40;;;6.20;99.90;;;;;;4996029;28;20443;-84
2022/04/19 05:27:03;;;;;;;13.60;9.45;;;6.60;99.90;;;;;;4979462;28;20039;-84
2022/04/19 05:29:29;;;;;;;12.55;8.73;;;6.80;99.90;;;;;;4978709;28;20046;-84
2022/04/19 05:31:57;;;;;;;14.98;9.60;;;6.90;99.90;;;;;;4990652;28;20466;-84
2022/04/19 05:34:23;;;;;;;12.40;9.20;;;7.10;99.90;;;;;;4994146;28;20425;-84
2022/04/19 05:36:52;;;;;;;12.15;8.25;;;7.30;99.90;;;;;;5003635;28;20046;-83
2022/04/19 05:39:19;;;;;;;13.02;8.90;;;7.60;99.90;;;;;;5000931;28;20042;-83
2022/04/19 05:41:49;;;;;;;12.82;8.70;;;7.70;99.90;;;;;;4987794;28;20042;-84
2022/04/19 05:44:15;;;;;;;14.55;8.70;;;7.70;99.90;;;;;;4978764;28;20496;-84
2022/04/19 05:46:44;;;;;;;13.35;8.52;;;7.70;99.90;;;;;;4985018;28;20042;-84
2022/04/19 05:49:10;;;;;;;13.35;8.43;;;7.60;99.90;;;;;;4992558;28;20501;-84
2022/04/19 05:51:36;;;;;;;13.73;9.18;;;8.00;99.90;;;;;;4986695;28;20049;-84
2022/04/19 05:54:05;;;;;;;14.63;8.75;;;8.10;99.90;;;;;;5017968;28;20485;-84
2022/04/19 05:56:32;;;;;;;13.05;8.48;;;8.40;99.90;;;;;;4986645;28;20121;-84
2022/04/19 05:59:04;;;;;;;11.55;8.50;;;8.70;99.90;;;;;;5005754;28;20042;-84
2022/04/19 06:04:51;;;;;;;12.25;8.90;;;9.10;99.90;;;;;;4984873;28;20045;-84
2022/04/19 06:07:03;;;;;;;11.90;8.30;;;10.00;98.20;;;;;;4994429;28;20038;-84
2022/04/19 06:09:29;;;;;;;11.90;7.93;;;10.70;99.10;;;;;;4997139;28;21095;-84
2022/04/19 06:11:55;;;;;;;11.32;7.60;;;11.60;94.60;;;;;;4934010;28;20599;-84
2022/04/19 06:14:20;;;;;;;12.82;8.68;;;11.40;94.30;;;;;;4996632;28;20493;-84
2022/04/19 06:16:46;;;;;;;12.07;8.20;;;12.10;90.40;;;;;;4960472;28;20069;-84
2022/04/19 06:19:12;;;;;;;14.25;8.20;;;11.70;90.10;;;;;;5007371;28;20473;-84
2022/04/19 06:21:39;;;;;;;12.48;8.68;;;12.10;91.20;;;;;;4978551;28;20479;-84
2022/04/19 06:24:05;;;;;;;14.77;8.38;;;13.60;81.90;;;;;;4992870;28;20038;-84
2022/04/19 06:26:32;;;;;;;13.18;8.35;;;13.60;81.10;;;;;;4960327;28;20042;-83
2022/04/19 06:28:59;;;;;;;12.95;8.50;;;13.30;78.00;;;;;;4968987;28;20100;-84
2022/04/19 06:31:25;;;;;;;11.32;7.95;;;13.00;78.00;;;;;;4973310;28;20045;-84
2022/04/19 06:33:54;;;;;;;12.70;8.77;;;13.00;78.50;;;;;;4975911;28;20042;-84
2022/04/19 06:36:25;;;;;;;13.40;8.20;;;13.10;81.20;;;;;;4977073;28;20675;-84
2022/04/19 06:38:50;;;;;;;13.65;8.55;;;13.30;81.50;;;;;;4975654;28;20486;-84
2022/04/19 06:41:17;;;;;;;12.18;8.45;;;12.80;84.30;;;;;;4993806;28;20121;-84
2022/04/19 06:43:46;;;;;;;11.77;8.32;;;12.90;83.60;;;;;;4976144;28;20117;-84
2022/04/19 06:46:15;;;;;;;11.27;7.93;;;12.70;87.00;;;;;;4991865;28;20057;-84
2022/04/19 06:48:41;;;;;;;10.57;7.72;;;12.90;86.70;;;;;;4974835;28;20046;-84
2022/04/19 06:51:10;;;;;;;11.95;7.30;;;14.10;82.90;;;;;;4992673;28;20043;-84
2022/04/19 06:53:38;;;;;;;11.25;7.35;;;13.90;78.70;;;;;;4958202;28;20057;-84
2022/04/19 06:56:07;;;;;;;11.40;7.63;;;14.70;75.30;;;;;;4953822;28;20417;-84
2022/04/19 06:58:35;;;;;;;11.60;8.13;;;15.20;70.10;;;;;;4958018;28;20104;-84
2022/04/19 07:01:00;;;;;;;13.23;8.05;;;15.10;74.50;;;;;;4958906;28;20057;-84
2022/04/19 07:03:30;;;;;;;12.48;7.80;;;15.70;66.00;;;;;;4973160;28;20042;-84
2022/04/19 07:05:59;;;;;;;11.38;7.82;;;15.70;66.90;;;;;;4973627;28;20149;-85
2022/04/19 07:08:26;;;;;;;10.52;7.18;;;15.80;64.40;;;;;;4970452;28;20085;-85
2022/04/19 07:10:56;;;;;;;11.15;7.40;;;16.00;65.30;;;;;;4971034;28;20042;-85
2022/04/19 07:13:25;;;;;;;13.45;7.45;;;16.30;62.20;;;;;;4955580;28;20054;-85
2022/04/19 07:15:55;;;;;;;11.98;7.70;;;16.00;63.60;;;;;;4954495;28;20046;-84
2022/04/19 07:18:24;;;;;;;11.40;7.20;;;16.80;62.70;;;;;;4945535;28;20417;-84
2022/04/19 07:26:38;;;;;;;10.80;7.28;;;16.40;62.50;;;;;;4989677;28;20121;-85
2022/04/19 07:29:18;;;;;;;11.20;6.93;;;16.40;60.70;;;;;;4975219;28;20461;-84
2022/04/19 07:31:49;;;;;;;11.02;6.32;;;16.70;60.70;;;;;;4972567;28;20046;-84
2022/04/19 07:34:31;;;;;;;10.55;6.50;;;16.30;59.40;;;;;;4989211;28;20046;-84
2022/04/19 07:36:57;;;;;;;9.82;6.65;;;16.20;60.80;;;;;;4991902;28;20045;-85
2022/04/19 07:39:22;;;;;;;9.80;6.72;;;16.00;61.80;;;;;;4973814;28;20046;-85
2022/04/19 07:41:49;;;;;;;11.05;6.97;;;16.60;60.50;;;;;;4976094;28;20048;-85
2022/04/19 07:44:15;;;;;;;9.90;7.25;;;16.90;59.60;;;;;;5007927;28;20564;-85
2022/04/19 07:46:42;;;;;;;11.48;6.97;;;16.50;61.70;;;;;;4992424;28;20490;-85
2022/04/19 07:49:09;;;;;;;11.27;7.30;;;16.90;61.30;;;;;;4989542;28;20041;-85
2022/04/19 07:51:35;;;;;;;11.55;7.30;;;16.60;60.80;;;;;;4975808;28;20046;-85
2022/04/19 07:54:04;;;;;;;10.88;7.13;;;17.00;59.80;;;;;;4989802;28;20395;-85
2022/04/19 07:56:30;;;;;;;10.25;6.60;;;16.60;59.00;;;;;;4991868;28;20038;-85
2022/04/19 07:59:00;;;;;;;10.43;6.43;;;16.70;59.40;;;;;;4975482;28;20034;-84
2022/04/19 08:01:28;;;;;;;10.13;6.50;;;17.20;58.60;;;;;;4972931;28;20137;-84
2022/04/19 08:03:54;;;;;;;9.82;6.53;;;17.20;57.60;;;;;;4974596;28;20038;-84
2022/04/19 08:06:22;;;;;;;10.27;6.70;;;17.20;56.90;;;;;;4990696;28;20046;-84
2022/04/19 08:08:52;;;;;;;11.13;6.80;;;17.20;57.10;;;;;;4989066;28;20541;-84
2022/04/19 08:11:19;;;;;;;10.75;6.38;;;17.20;56.30;;;;;;4989881;28;20445;-84
2022/04/19 08:13:48;;;;;;;10.25;6.18;;;17.00;57.60;;;;;;4990463;28;20473;-84
2022/04/19 08:16:15;;;;;;;8.25;6.00;;;16.70;56.00;;;;;;4975256;28;20080;-84
2022/04/19 08:18:41;;;;;;;8.60;5.78;;;16.50;58.70;;;;;;4990778;28;20461;-84
2022/04/19 08:21:12;;;;;;;9.15;5.93;;;16.90;56.90;;;;;;4994117;28;20721;-84
2022/04/19 08:23:37;;;;;;;9.65;6.00;;;17.10;57.70;;;;;;4975190;28;20042;-84
2022/04/19 08:26:03;;;;;;;10.00;5.68;;;17.10;57.30;;;;;;4959150;28;20061;-84
2022/04/19 08:28:29;;;;;;;10.70;5.78;;;17.20;56.40;;;;;;4990392;28;20046;-84
2022/04/19 08:30:57;;;;;;;8.35;5.60;;;17.00;56.00;;;;;;4973942;28;20129;-84
2022/04/19 08:33:28;;;;;;;7.25;4.68;;;17.00;55.80;;;;;;4984662;28;20413;-84
2022/04/19 08:36:00;;;;;;;8.52;4.60;;;17.00;55.20;;;;;;4990265;28;20058;-84
2022/04/19 08:38:29;;;;;;;7.55;4.10;;;16.90;53.70;;;;;;4970579;28;20050;-84
2022/04/19 08:40:58;;;;;;;6.90;3.90;;;16.50;53.40;;;;;;4990145;28;20597;-84
2022/04/19 08:43:25;;;;;;;7.28;4.00;;;16.40;54.70;;;;;;4972324;28;20129;-84
2022/04/19 08:45:58;;;;;;;6.93;4.13;;;16.60;51.90;;;;;;4973632;28;20042;-84
2022/04/19 08:48:27;;;;;;;7.30;4.20;;;16.80;52.20;;;;;;5005087;28;20038;-84
2022/04/19 08:50:55;;;;;;;7.43;4.38;;;17.20;51.20;;;;;;4980586;28;20035;-84
2022/04/19 08:59:07;;;;;;;7.57;3.70;;;17.10;48.70;;;;;;4992617;28;20061;-84
2022/04/19 09:01:44;;;;;;;7.72;3.53;;;17.30;48.30;;;;;;4995310;28;20053;-85
2022/04/19 09:04:12;;;;;;;7.88;3.80;;;17.60;47.00;;;;;;4991979;28;20505;-85
2022/04/19 09:07:04;;;;;;;7.32;3.50;;;16.90;46.80;;;;;;4963249;28;20111;-84
2022/04/19 09:09:35;;;;;;;7.70;3.50;;;17.10;47.20;;;;;;4946448;28;20494;-84
2022/04/19 09:12:12;;;;;;;6.55;3.45;;;17.00;46.30;;;;;;4915354;28;20471;-85
2022/04/19 09:15:06;;;;;;;7.07;3.35;;;16.90;45.00;;;;;;4929688;28;20055;-84
2022/04/19 09:17:42;;;;;;;7.03;3.60;;;17.30;46.10;;;;;;4931291;28;20051;-84
2022/04/19 09:20:22;;;;;;;5.68;3.17;;;16.90;46.20;;;;;;4928370;28;20483;-84
2022/04/19 09:23:14;;;;;;;9.38;3.50;;;17.50;47.00;;;;;;4931225;28;20145;-84
2022/04/19 09:25:40;;;;;;;6.25;3.30;;;17.70;45.80;;;;;;4933677;28;20085;-84
2022/04/19 09:28:22;;;;;;;5.47;2.60;;;18.00;48.30;;;;;;4930541;28;20047;-84
2022/04/19 09:30:56;;;;;;;6.68;2.42;;;18.20;42.20;;;;;;4893070;29;20054;-84
2022/04/19 09:37:10;;;;;;;5.20;2.72;;;17.70;45.30;;;;;;4939109;28;20046;-84
2022/04/19 09:39:41;;;;;;;6.28;2.45;;;17.80;43.90;;;;;;4919388;28;20514;-84
2022/04/19 09:42:14;;;;;;;4.75;1.90;;;18.00;43.10;;;;;;4966395;28;20058;-84
2022/04/19 09:44:50;;;;;;;5.03;2.10;;;18.00;41.10;;;;;;4980194;28;20069;-83
2022/04/19 09:47:17;;;;;;;5.25;1.80;;;17.60;45.10;;;;;;4977318;28;20042;-84
2022/04/19 09:49:53;;;;;;;5.40;2.00;;;17.60;45.00;;;;;;4960877;28;20054;-83
2022/04/19 09:52:22;;;;;;;5.25;2.30;;;17.50;44.50;;;;;;4974633;28;20124;-83
2022/04/19 09:55:05;;;;;;;4.43;2.10;;;17.50;44.50;;;;;;4962138;28;20403;-83
2022/04/19 09:57:33;;;;;;;4.65;2.00;;;17.40;43.90;;;;;;4964984;28;20038;-84
2022/04/19 09:59:59;;;;;;;6.63;2.08;;;17.30;46.10;;;;;;4965172;28;20066;-84
2022/04/19 10:08:11;;;;;;;5.50;2.10;;;17.40;44.40;;;;;;4927490;28;20058;-84
2022/04/19 10:10:38;;;;;;;8.88;1.80;;;17.60;43.30;;;;;;4990615;28;20042;-84
2022/04/19 10:13:05;;;;;;;4.50;1.70;;;17.90;41.00;;;;;;4989107;28;20176;-84
2022/04/19 10:15:37;;;;;;;6.63;1.95;;;17.90;41.70;;;;;;4991717;28;20038;-84
2022/04/19 10:18:04;;;;;;;5.25;1.98;;;17.80;42.60;;;;;;4984066;28;20050;-84
2022/04/19 10:20:31;;;;;;;4.30;1.90;;;17.70;44.20;;;;;;4994427;28;20034;-85
2022/04/19 10:23:03;;;;;;;6.05;2.05;;;17.80;44.20;;;;;;4997616;28;20045;-84
2022/04/19 10:25:48;;;;;;;4.70;1.80;;;17.80;41.40;;;;;;4994155;28;20387;-84
2022/04/19 10:28:28;;;;;;;5.00;1.77;;;17.80;42.80;;;;;;4993591;28;20050;-84
2022/04/19 10:30:55;;;;;;;5.07;2.00;;;18.00;43.30;;;;;;4995476;28;20050;-84
2022/04/19 10:33:49;;;;;;;4.60;2.03;;;18.20;41.50;;;;;;4974233;28;20468;-84
2022/04/19 10:36:30;;;;;;;4.38;1.80;;;18.10;43.30;;;;;;4995023;28;20486;-84
2022/04/19 10:39:20;;;;;;;4.35;1.70;;;17.90;42.60;;;;;;4978150;28;20045;-84
2022/04/19 10:42:05;;;;;;;5.65;1.90;;;17.90;41.60;;;;;;4986699;28;20062;-84
2022/04/19 10:44:50;;;;;;;5.75;1.83;;;18.30;42.30;;;;;;4995305;28;20046;-84
2022/04/19 10:47:22;;;;;;;5.20;1.85;;;18.30;44.30;;;;;;4978699;28;20109;-84
2022/04/19 10:50:07;;;;;;;5.50;1.92;;;18.30;44.10;;;;;;4978972;28;20050;-84
2022/04/19 10:52:39;;;;;;;3.80;1.60;;;18.20;42.20;;;;;;4995292;28;20041;-84
2022/04/19 10:55:24;;;;;;;4.30;1.73;;;17.90;45.20;;;;;;5009927;28;20411;-84
2022/04/19 11:01:02;;;;;;;5.07;1.60;;;17.90;43.60;;;;;;4977835;28;20046;-84
2022/04/19 11:03:35;;;;;;;6.43;2.00;;;18.00;45.00;;;;;;4962829;28;20031;-83
2022/04/19 11:06:02;;;;;;;5.32;2.00;;;18.00;43.80;;;;;;4991232;28;20039;-84
2022/04/19 11:08:31;;;;;;;5.35;1.80;;;18.00;43.30;;;;;;4985917;28;20038;-83
2022/04/19 11:11:02;;;;;;;7.00;1.95;;;18.30;43.70;;;;;;4994912;28;20148;-83
2022/04/19 11:13:38;;;;;;;4.70;2.15;;;18.30;45.10;;;;;;4980482;28;20051;-83
2022/04/19 11:16:03;;;;;;;5.55;2.00;;;18.40;43.30;;;;;;4939513;28;20535;-84
2022/04/19 11:18:31;;;;;;;5.07;2.10;;;18.40;43.50;;;;;;5003975;28;20038;-84
2022/04/19 11:20:59;;;;;;;6.47;2.42;;;18.50;45.90;;;;;;4995631;28;20042;-83
2022/04/19 11:23:26;;;;;;;4.50;2.40;;;18.60;44.00;;;;;;4981762;28;20489;-84
2022/04/19 11:25:53;;;;;;;4.80;2.20;;;18.50;44.20;;;;;;4980056;28;20042;-84
2022/04/19 11:28:31;;;;;;;5.38;2.28;;;18.60;43.90;;;;;;4994823;28;20528;-84
2022/04/19 11:30:57;;;;;;;5.20;2.30;;;18.90;46.90;;;;;;4978976;28;20041;-84
2022/04/19 11:33:33;;;;;;;4.85;2.00;;;18.90;44.20;;;;;;4978713;28;20048;-83
2022/04/19 11:36:06;;;;;;;4.35;2.00;;;18.80;46.50;;;;;;4994061;28;20617;-84
2022/04/19 11:38:35;;;;;;;5.68;1.80;;;18.80;46.20;;;;;;4993635;28;20045;-84
2022/04/19 11:46:45;;;;;;;8.82;2.05;;;18.90;43.50;;;;;;4986040;28;20438;-84
2022/04/19 11:49:19;;;;;;;6.32;1.98;;;18.50;42.70;;;;;;4980515;28;20062;-84
2022/04/19 11:51:56;;;;;;;5.47;2.00;;;18.60;44.90;;;;;;4982100;28;20041;-84
2022/04/19 11:54:29;;;;;;;6.40;1.90;;;18.80;44.20;;;;;;4997144;28;20132;-84
2022/04/19 11:56:58;;;;;;;9.30;2.17;;;18.70;41.10;;;;;;4995108;28;20045;-84
2022/04/19 11:59:25;;;;;;;7.45;2.10;;;18.60;41.30;;;;;;4991905;28;21061;-84
2022/04/19 12:01:52;;;;;;;5.00;2.03;;;18.20;41.90;;;;;;4973120;28;20041;-83
2022/04/19 12:04:18;;;;;;;5.53;1.80;;;18.30;42.50;;;;;;4987409;28;20066;-83
2022/04/19 12:07:03;;;;;;;4.63;1.90;;;18.70;41.20;;;;;;4998197;28;20049;-84
2022/04/19 12:09:30;;;;;;;4.63;1.83;;;18.80;42.60;;;;;;4967692;28;20493;-84
2022/04/19 12:11:56;;;;;;;5.15;2.42;;;18.80;43.10;;;;;;4973555;28;20405;-84
2022/04/19 12:14:23;;;;;;;5.25;2.50;;;18.60;41.10;;;;;;4974257;28;20046;-83
2022/04/19 12:17:18;;;;;;;4.40;2.30;;;18.50;41.70;;;;;;4992442;28;20098;-83
2022/04/19 12:19:44;;;;;;;5.30;2.40;;;18.80;44.40;;;;;;4978104;28;20054;-83
2022/04/19 12:22:21;;;;;;;6.10;3.05;;;18.80;44.80;;;;;;4976626;28;20129;-83
2022/04/19 12:24:55;;;;;;;4.95;2.58;;;18.80;43.60;;;;;;4976243;28;20048;-83
2022/04/19 12:27:34;;;;;;;5.90;2.60;;;18.70;43.30;;;;;;4987272;28;20046;-83
2022/04/19 12:30:02;;;;;;;6.15;2.60;;;18.80;44.60;;;;;;4967824;28;20058;-84
2022/04/19 12:32:54;;;;;;;4.88;2.35;;;18.90;42.60;;;;;;4991811;28;20046;-84
2022/04/19 12:35:39;;;;;;;;;;;18.70;40.30;;;;;;4994143;28;20057;-84
2022/04/19 12:38:18;;;;;;;8.48;2.90;;;18.70;42.60;;;;;;4969806;28;20324;-84
2022/04/19 12:40:44;;;;;;;4.93;2.70;;;18.90;42.20;;;;;;5007176;28;20050;-84
2022/04/19 12:43:10;;;;;;;6.22;3.00;;;18.70;41.80;;;;;;4977080;28;20054;-84
2022/04/19 12:45:38;;;;;;;6.00;2.58;;;18.80;43.50;;;;;;4994071;28;20502;-84
2022/04/19 12:48:07;;;;;;;6.20;2.58;;;18.40;41.20;;;;;;4976322;28;20053;-83
2022/04/19 12:50:33;;;;;;;10.48;2.63;;;18.70;42.30;;;;;;4991357;28;20038;-83
2022/04/19 12:52:59;;;;;;;6.78;2.50;;;18.40;40.50;;;;;;4969477;28;20096;-84
2022/04/19 12:55:34;;;;;;;7.03;2.60;;;18.30;41.70;;;;;;4961117;28;20366;-83
2022/04/19 12:58:09;;;;;;;6.45;2.45;;;18.40;41.70;;;;;;4965931;28;20117;-84
2022/04/19 13:00:36;;;;;;;6.15;3.00;;;18.50;41.00;;;;;;4978893;28;20045;-83
2022/04/19 13:03:03;;;;;;;6.82;2.72;;;18.20;41.50;;;;;;4992662;28;20089;-84
2022/04/19 13:13:41;;;;;;;4.55;2.20;;;18.70;40.80;;;;;;4960912;28;20153;-83
2022/04/19 13:16:07;;;;;;;6.18;2.65;;;18.40;41.90;;;;;;4957370;28;20121;-84
2022/04/19 13:18:33;;;;;;;6.95;2.60;;;18.40;41.30;;;;;;4992119;28;20073;-84
2022/04/19 13:20:59;;;;;;;8.63;3.00;;;18.40;41.50;;;;;;4978763;28;20073;-83
2022/04/19 13:23:25;;;;;;;5.22;2.30;;;17.90;41.40;;;;;;4964449;28;20117;-84
2022/04/19 13:25:52;;;;;;;6.68;2.17;;;18.00;42.10;;;;;;4976218;28;20039;-83
2022/04/19 13:28:18;;;;;;;5.28;2.35;;;18.30;42.40;;;;;;4991242;28;20099;-83
2022/04/19 13:30:44;;;;;;;5.28;2.40;;;18.40;41.80;;;;;;4977942;28;20113;-83
2022/04/19 13:33:10;;;;;;;7.25;2.85;;;18.50;43.80;;;;;;4981434;28;20038;-83
2022/04/19 13:35:35;;;;;;;7.05;2.80;;;18.50;41.70;;;;;;4993628;28;20038;-84
2022/04/19 13:40:45;;;;;;;5.75;2.38;;;18.40;43.40;;;;;;4991155;28;20046;-84
2022/04/19 13:43:11;;;;;;;5.15;2.20;;;18.50;42.30;;;;;;4995871;28;20383;-84
2022/04/19 13:45:37;;;;;;;7.18;2.60;;;18.10;42.00;;;;;;4995273;28;20038;-84
2022/04/19 13:48:03;;;;;;;4.85;2.20;;;18.10;41.70;;;;;;4994365;28;20057;-83